createdAt,value
2023-09-15T00:01:24.976Z,99.90
2023-09-15T00:03:55.737Z,99.90
2023-09-15T00:06:26.104Z,99.90
2023-09-15T00:08:56.705Z,99.90
2023-09-15T00:11:27.039Z,99.90
2023-09-15T00:13:57.596Z,99.90
2023-09-15T00:16:28.034Z,99.90
2023-09-15T00:18:58.581Z,99.90
2023-09-15T00:21:29.669Z,99.90
2023-09-15T00:24:00.057Z,99.90
2023-09-15T00:26:32.737Z,99.90
2023-09-15T00:29:07.572Z,99.90
2023-09-15T00:31:38.117Z,99.90
2023-09-15T00:34:08.853Z,99.90
2023-09-15T00:36:39.302Z,99.90
2023-09-15T00:39:09.921Z,99.90
2023-09-15T00:41:40.381Z,99.90
2023-09-15T00:44:10.798Z,99.90
2023-09-15T00:46:41.663Z,99.90
2023-09-15T00:49:12.190Z,99.90
2023-09-15T00:51:43.082Z,99.90
2023-09-15T00:54:15.432Z,99.90
2023-09-15T00:56:46.414Z,99.90
2023-09-15T00:59:17.286Z,99.90
2023-09-15T01:01:51.157Z,99.90
2023-09-15T01:04:23.035Z,99.90
2023-09-15T01:06:56.484Z,99.90
2023-09-15T01:09:28.774Z,99.90
2023-09-15T01:11:59.393Z,99.90
2023-09-15T01:14:29.768Z,99.90
2023-09-15T01:17:15.526Z,99.90
2023-09-15T01:19:56.787Z,99.90
2023-09-15T01:22:45.369Z,99.90
2023-09-15T01:25:44.568Z,99.90
2023-09-15T01:28:55.800Z,99.90
2023-09-15T01:31:28.421Z,99.90
2023-09-15T01:33:59.246Z,99.90
2023-09-15T01:36:29.665Z,99.90
2023-09-15T01:39:00.071Z,99.90
2023-09-15T01:41:30.526Z,99.90
2023-09-15T01:44:00.902Z,99.90
2023-09-15T01:46:32.289Z,99.90
2023-09-15T01:49:05.447Z,99.90
2023-09-15T01:51:36.322Z,99.90
2023-09-15T01:54:07.571Z,99.90
2023-09-15T01:56:38.427Z,99.90
2023-09-15T01:59:08.842Z,99.90
2023-09-15T02:01:39.462Z,99.90
2023-09-15T02:04:09.978Z,99.90
2023-09-15T02:06:40.466Z,99.90
2023-09-15T02:09:12.358Z,99.90
2023-09-15T02:11:42.838Z,99.90
2023-09-15T02:14:13.128Z,99.90
2023-09-15T02:16:45.718Z,99.90
2023-09-15T02:19:16.248Z,99.90
2023-09-15T02:21:46.728Z,99.90
2023-09-15T02:24:17.429Z,99.90
2023-09-15T02:26:48.389Z,99.90
2023-09-15T02:29:18.787Z,99.90
2023-09-15T02:31:49.154Z,99.90
2023-09-15T02:34:19.637Z,99.90
2023-09-15T02:36:50.206Z,99.90
2023-09-15T02:39:20.617Z,99.90
2023-09-15T02:41:51.248Z,99.90
2023-09-15T02:44:21.713Z,99.90
2023-09-15T02:46:52.117Z,99.90
2023-09-15T02:49:22.689Z,99.90
2023-09-15T02:51:55.802Z,99.90
2023-09-15T02:54:26.462Z,99.90
2023-09-15T02:56:56.862Z,99.90
2023-09-15T02:59:27.366Z,99.90
2023-09-15T03:01:57.774Z,99.90
2023-09-15T03:04:29.123Z,99.90
2023-09-15T03:06:59.649Z,99.90
2023-09-15T03:09:30.154Z,99.90
2023-09-15T03:12:03.796Z,99.90
2023-09-15T03:14:34.391Z,99.90
2023-09-15T03:17:06.967Z,99.90
2023-09-15T03:19:37.729Z,99.90
2023-09-15T03:22:10.059Z,99.90
2023-09-15T03:24:40.619Z,99.90
2023-09-15T03:27:10.936Z,99.90
2023-09-15T03:29:41.361Z,99.90
2023-09-15T03:32:11.701Z,99.90
2023-09-15T03:34:43.019Z,99.90
2023-09-15T03:37:14.418Z,99.90
2023-09-15T03:39:46.041Z,99.90
2023-09-15T03:42:16.996Z,99.90
2023-09-15T03:44:48.844Z,99.90
2023-09-15T03:47:21.577Z,99.90
2023-09-15T03:49:55.274Z,99.90
2023-09-15T03:52:29.913Z,99.90
2023-09-15T03:55:04.254Z,99.90
2023-09-15T03:57:34.936Z,99.90
2023-09-15T04:00:10.793Z,99.90
2023-09-15T04:02:42.295Z,99.90
2023-09-15T04:05:13.586Z,99.90
2023-09-15T06:51:35.929Z,99.90
2023-09-15T06:54:06.948Z,99.90
2023-09-15T06:56:37.508Z,99.90
2023-09-15T06:59:08.101Z,99.90
2023-09-15T07:01:43.786Z,99.90
2023-09-15T07:04:17.283Z,99.90
2023-09-15T07:06:48.131Z,98.70
2023-09-15T07:09:18.720Z,99.90
2023-09-15T07:11:49.115Z,99.70
2023-09-15T07:14:19.701Z,99.90
2023-09-15T07:16:51.574Z,99.30
2023-09-15T07:19:22.555Z,99.50
2023-09-15T07:21:53.451Z,99.10
2023-09-15T07:24:24.069Z,99.90
2023-09-15T07:26:54.608Z,99.90
2023-09-15T07:29:25.661Z,99.10
2023-09-15T07:31:56.339Z,98.70
2023-09-15T07:34:27.350Z,99.00
2023-09-15T07:36:57.927Z,99.90
2023-09-15T07:39:28.486Z,99.80
2023-09-15T07:41:59.014Z,99.20
2023-09-15T07:44:30.110Z,99.30
2023-09-15T07:47:01.942Z,99.10
2023-09-15T07:49:33.709Z,99.50
2023-09-15T07:52:04.453Z,98.50
2023-09-15T07:54:34.990Z,98.10
2023-09-15T07:57:06.719Z,99.60
2023-09-15T07:59:40.468Z,99.50
2023-09-15T08:02:21.412Z,99.70
2023-09-15T08:04:52.729Z,99.00
2023-09-15T08:07:23.402Z,98.90
2023-09-15T08:09:55.581Z,99.00
2023-09-15T08:12:26.724Z,99.10
2023-09-15T08:14:57.272Z,98.90
2023-09-15T08:17:33.564Z,99.00
2023-09-15T08:20:09.489Z,99.40
2023-09-15T08:22:44.906Z,99.90
2023-09-15T08:25:15.547Z,99.70
2023-09-15T08:27:49.940Z,99.30
2023-09-15T08:30:21.533Z,99.40
2023-09-15T08:32:58.364Z,99.80
2023-09-15T08:35:29.993Z,99.90
2023-09-15T08:38:04.696Z,99.90
2023-09-15T08:41:05.108Z,99.90
2023-09-15T08:43:47.918Z,99.90
2023-09-15T08:46:20.614Z,99.90
2023-09-15T08:48:54.918Z,99.00
2023-09-15T08:51:28.605Z,99.70
2023-09-15T08:54:02.653Z,99.90
2023-09-15T08:56:33.968Z,99.90
2023-09-15T08:59:06.969Z,99.90
2023-09-15T09:01:38.274Z,99.90
2023-09-15T09:04:21.424Z,99.90
2023-09-15T09:06:53.568Z,99.90
2023-09-15T09:09:26.351Z,99.70
2023-09-15T09:12:08.183Z,99.90
2023-09-15T09:14:40.107Z,99.90
2023-09-15T09:17:12.301Z,99.90
2023-09-15T09:19:49.485Z,99.90
2023-09-15T09:22:23.609Z,99.90
2023-09-15T09:25:02.055Z,99.90
2023-09-15T09:27:37.936Z,99.90
2023-09-15T09:30:10.386Z,99.90
2023-09-15T09:32:41.730Z,99.90
2023-09-15T09:35:16.363Z,99.90
2023-09-15T09:37:47.123Z,99.90
2023-09-15T09:40:18.310Z,99.90
2023-09-15T09:42:51.556Z,99.90
2023-09-15T09:45:28.690Z,99.90
2023-09-15T09:48:00.671Z,99.90
2023-09-15T09:50:31.309Z,99.90
2023-09-15T09:53:01.700Z,99.90
2023-09-15T09:55:32.365Z,99.90
2023-09-15T09:58:13.192Z,99.90
2023-09-15T10:00:43.726Z,99.90
2023-09-15T10:03:15.783Z,99.90
2023-09-15T10:05:46.629Z,99.90
2023-09-15T10:08:18.916Z,99.90
2023-09-15T10:10:53.155Z,99.90
2023-09-15T10:13:23.740Z,99.90
2023-09-15T10:15:56.776Z,99.90
2023-09-15T10:18:28.816Z,99.90
2023-09-15T10:21:00.666Z,99.90
2023-09-15T10:23:33.441Z,99.90
2023-09-15T10:26:10.138Z,99.90
2023-09-15T10:28:42.676Z,99.90
2023-09-15T10:31:27.029Z,99.90
2023-09-15T10:33:57.467Z,99.90
2023-09-15T10:36:30.307Z,99.90
2023-09-15T10:39:16.341Z,99.90
2023-09-15T10:41:48.029Z,99.90
2023-09-15T10:44:18.459Z,99.90
2023-09-15T10:46:48.865Z,99.90
2023-09-15T10:49:21.525Z,99.90
2023-09-15T10:52:03.329Z,99.90
2023-09-15T10:54:41.623Z,99.90
2023-09-15T10:57:12.794Z,99.90
2023-09-15T10:59:43.330Z,99.90
2023-09-15T11:02:14.373Z,99.90
2023-09-15T11:04:45.566Z,99.90
2023-09-15T11:07:20.016Z,99.90
2023-09-15T11:09:52.429Z,99.90
2023-09-15T11:12:22.955Z,99.90
2023-09-15T11:14:53.394Z,99.90
2023-09-15T11:17:23.725Z,99.90
2023-09-15T11:19:55.916Z,99.90
2023-09-15T11:22:26.938Z,99.90
2023-09-15T11:25:10.370Z,99.90
2023-09-15T11:27:45.254Z,99.90
2023-09-15T11:30:16.093Z,99.90
2023-09-15T11:32:46.716Z,99.90
2023-09-15T11:35:17.293Z,99.90
2023-09-15T11:37:48.454Z,99.90
2023-09-15T11:40:28.024Z,99.90
2023-09-15T11:42:59.336Z,99.90
2023-09-15T11:45:33.833Z,99.90
2023-09-15T11:48:07.418Z,99.90
2023-09-15T11:50:38.710Z,99.90
2023-09-15T11:53:09.319Z,99.90
2023-09-15T11:55:40.313Z,99.90
2023-09-15T11:58:11.039Z,99.90
2023-09-15T12:00:42.268Z,99.90
2023-09-15T12:03:12.819Z,99.90
2023-09-15T12:05:43.626Z,99.90
2023-09-15T12:08:16.243Z,99.90
2023-09-15T12:10:51.936Z,99.90
2023-09-15T12:13:28.428Z,99.90
2023-09-15T12:16:01.703Z,99.90
2023-09-15T12:18:32.370Z,99.90
2023-09-15T12:21:02.856Z,99.90
2023-09-15T12:23:33.175Z,99.90
2023-09-15T12:26:03.749Z,99.90
2023-09-15T12:28:35.922Z,99.90
2023-09-15T12:31:06.612Z,99.90
2023-09-15T12:33:41.638Z,99.90
2023-09-15T12:36:17.505Z,99.90
2023-09-15T12:38:47.790Z,99.90
2023-09-15T12:41:28.048Z,99.90
2023-09-15T12:43:58.391Z,99.90
2023-09-15T12:46:29.434Z,99.90
2023-09-15T12:48:59.828Z,99.90
2023-09-15T12:51:30.264Z,99.90
2023-09-15T12:54:00.680Z,99.90
2023-09-15T12:56:31.099Z,99.90
2023-09-15T12:59:03.288Z,99.90
2023-09-15T13:01:35.227Z,99.90
2023-09-15T13:04:07.408Z,99.90
2023-09-15T13:06:38.084Z,99.90
2023-09-15T13:09:08.561Z,99.90
2023-09-15T13:11:42.205Z,99.90
2023-09-15T13:14:12.636Z,99.90
2023-09-15T13:16:43.045Z,99.90
2023-09-15T13:19:14.533Z,99.90
2023-09-15T13:21:47.887Z,99.90
2023-09-15T13:24:18.532Z,99.90
2023-09-15T13:26:49.031Z,99.90
2023-09-15T13:29:19.416Z,99.90
2023-09-15T13:31:50.742Z,99.90
2023-09-15T13:34:22.142Z,99.90
2023-09-15T13:36:55.827Z,99.90
2023-09-15T13:39:26.563Z,99.90
2023-09-15T13:41:57.037Z,99.90
2023-09-15T13:44:27.450Z,99.90
2023-09-15T13:46:59.665Z,99.90
2023-09-15T13:49:30.094Z,99.90
2023-09-15T13:52:00.738Z,99.90
2023-09-15T13:54:31.163Z,99.90
2023-09-15T13:57:08.127Z,99.90
2023-09-15T13:59:41.394Z,99.90
2023-09-15T14:02:11.994Z,99.90
2023-09-15T14:04:43.937Z,99.90
2023-09-15T14:07:14.492Z,99.90
2023-09-15T14:09:45.049Z,99.90
2023-09-15T14:12:16.355Z,99.90
2023-09-15T14:14:47.098Z,99.90
2023-09-15T14:17:17.525Z,99.90
2023-09-15T14:19:47.932Z,99.90
2023-09-15T14:22:18.398Z,99.90
2023-09-15T14:24:49.143Z,99.90
2023-09-15T14:27:19.867Z,99.90
2023-09-15T14:29:50.631Z,99.90
2023-09-15T14:32:21.150Z,99.90
2023-09-15T14:34:51.663Z,99.90
2023-09-15T14:37:22.233Z,99.90
2023-09-15T14:39:52.597Z,99.90
2023-09-15T14:42:24.246Z,99.90
2023-09-15T14:44:54.656Z,99.90
2023-09-15T14:47:26.073Z,99.90
2023-09-15T14:49:57.583Z,99.90
2023-09-15T14:52:28.626Z,99.90
2023-09-15T14:54:59.025Z,99.90
2023-09-15T14:57:29.648Z,99.90
2023-09-15T15:00:04.115Z,99.90
2023-09-15T15:02:34.823Z,99.90
2023-09-15T15:05:05.332Z,99.90
2023-09-15T15:07:36.157Z,99.90
2023-09-15T15:10:06.762Z,99.90
2023-09-15T15:12:37.289Z,99.90
2023-09-15T15:15:08.216Z,99.90
2023-09-15T15:17:38.849Z,99.90
2023-09-15T15:20:10.433Z,99.90
2023-09-15T15:22:41.105Z,99.90
2023-09-15T15:25:11.842Z,99.90
2023-09-15T15:27:47.727Z,99.90
2023-09-15T15:30:18.844Z,99.90
2023-09-15T15:32:49.957Z,99.90
2023-09-15T15:35:22.742Z,99.90
2023-09-15T15:37:54.874Z,99.90
2023-09-15T15:40:25.246Z,99.90
2023-09-15T15:42:59.111Z,99.90
2023-09-15T15:45:29.545Z,99.90
2023-09-15T15:48:00.832Z,99.90
2023-09-15T15:50:32.382Z,99.90
2023-09-15T15:53:02.900Z,99.90
2023-09-15T15:55:34.577Z,99.90
2023-09-15T15:58:04.963Z,99.90
2023-09-15T16:00:36.109Z,99.90
2023-09-15T16:03:07.476Z,99.90
2023-09-15T16:05:38.208Z,99.90
2023-09-15T16:08:08.712Z,99.90
2023-09-15T16:10:40.029Z,99.90
2023-09-15T16:13:10.541Z,99.90
2023-09-15T16:15:40.964Z,99.90
2023-09-15T16:18:24.536Z,99.90
2023-09-15T16:21:00.791Z,99.90
2023-09-15T16:23:31.177Z,99.90
2023-09-15T16:26:01.602Z,99.90
2023-09-15T16:28:32.114Z,99.90
2023-09-15T16:31:02.601Z,99.90
2023-09-15T16:33:33.249Z,99.90
2023-09-15T16:36:05.864Z,99.90
2023-09-15T16:38:36.425Z,99.90
2023-09-15T16:41:06.828Z,99.90
2023-09-15T16:43:38.929Z,99.90
2023-09-15T16:46:09.468Z,99.90
2023-09-15T16:48:39.928Z,99.90
2023-09-15T16:51:11.108Z,99.90
2023-09-15T16:53:44.615Z,99.90
2023-09-15T16:56:16.548Z,99.90
2023-09-15T16:58:47.235Z,99.90
2023-09-15T17:01:18.080Z,99.90
2023-09-15T17:03:48.823Z,99.90
2023-09-15T17:06:19.693Z,99.90
2023-09-15T17:08:50.305Z,99.90
2023-09-15T17:11:22.370Z,99.90
2023-09-15T17:13:52.648Z,99.90
2023-09-15T17:16:24.139Z,99.90
2023-09-15T17:18:54.472Z,99.90
2023-09-15T17:21:25.504Z,99.90
2023-09-15T17:23:55.867Z,99.90
2023-09-15T17:26:26.225Z,99.90
2023-09-15T17:28:56.692Z,99.90
2023-09-15T17:31:28.891Z,99.90
2023-09-15T17:33:59.266Z,99.90
2023-09-15T17:36:29.734Z,99.90
2023-09-15T17:39:01.219Z,99.90
2023-09-15T17:41:31.614Z,99.90
2023-09-15T17:44:02.146Z,99.90
2023-09-15T17:46:32.682Z,99.90
2023-09-15T17:49:03.169Z,99.90
2023-09-15T17:51:33.669Z,99.90
2023-09-15T17:54:05.820Z,99.90
2023-09-15T17:56:36.795Z,99.90
2023-09-15T17:59:07.606Z,99.90
2023-09-15T18:01:38.400Z,99.90
2023-09-15T18:04:08.762Z,99.90
2023-09-15T18:06:42.546Z,99.90
2023-09-15T18:09:12.971Z,99.90
2023-09-15T18:11:43.718Z,99.90
2023-09-15T18:14:14.178Z,99.90
2023-09-15T18:16:47.729Z,99.90
2023-09-15T18:19:18.059Z,99.90
2023-09-15T18:21:48.480Z,99.90
2023-09-15T18:24:18.965Z,99.90
2023-09-15T18:26:49.524Z,99.90
2023-09-15T18:29:19.862Z,99.90
2023-09-15T18:31:50.230Z,99.90
2023-09-15T18:34:20.582Z,99.90
2023-09-15T18:36:51.021Z,99.90
2023-09-15T18:39:22.641Z,99.90
2023-09-15T18:41:53.074Z,99.90
2023-09-15T18:44:23.417Z,99.90
2023-09-15T18:46:54.804Z,99.90
2023-09-15T18:49:25.138Z,99.90
2023-09-15T18:51:56.490Z,99.90
2023-09-15T18:54:29.366Z,99.90
2023-09-15T18:57:00.023Z,99.90
2023-09-15T18:59:30.697Z,99.90
2023-09-15T19:02:01.145Z,99.90
2023-09-15T19:04:31.491Z,99.90
2023-09-15T19:07:02.628Z,99.90
2023-09-15T19:09:33.189Z,99.90
2023-09-15T19:12:03.594Z,99.90
2023-09-15T19:14:35.155Z,99.90
2023-09-15T19:17:05.613Z,99.90
2023-09-15T19:19:36.012Z,99.90
2023-09-15T19:22:06.636Z,99.90
2023-09-15T19:24:37.213Z,99.90
2023-09-15T19:27:07.921Z,99.90
2023-09-15T19:29:38.147Z,99.90
2023-09-15T19:32:08.721Z,99.90
2023-09-15T19:34:39.216Z,99.90
2023-09-15T19:37:09.742Z,99.90
2023-09-15T19:39:43.448Z,99.90
2023-09-15T19:42:13.986Z,99.90
2023-09-15T19:44:44.318Z,99.90
2023-09-15T19:47:16.273Z,99.90
2023-09-15T19:49:46.947Z,99.90
2023-09-15T19:52:17.541Z,99.90
2023-09-15T19:54:47.930Z,99.90
2023-09-15T19:57:19.704Z,99.90
2023-09-15T19:59:50.156Z,99.90
2023-09-15T20:02:20.641Z,99.90
2023-09-15T20:04:51.237Z,99.90
2023-09-15T20:07:21.677Z,99.90
2023-09-15T20:09:52.055Z,99.90
2023-09-15T20:12:22.509Z,99.90
2023-09-15T20:14:56.750Z,99.90
2023-09-15T20:17:29.962Z,99.90
2023-09-15T20:20:01.978Z,99.90
2023-09-15T20:22:32.351Z,99.90
2023-09-15T20:25:03.090Z,99.90
2023-09-15T20:27:34.589Z,99.90
2023-09-15T20:30:05.823Z,99.90
2023-09-15T20:32:36.247Z,99.90
2023-09-15T20:35:09.828Z,99.90
2023-09-15T20:37:40.201Z,99.90
2023-09-15T20:40:12.119Z,99.90
2023-09-15T20:42:42.474Z,99.90
2023-09-15T20:45:13.452Z,99.90
2023-09-15T20:47:44.585Z,99.90
2023-09-15T20:50:16.894Z,99.90
2023-09-15T20:52:47.412Z,99.90
2023-09-15T20:55:17.987Z,99.90
2023-09-15T20:57:48.924Z,99.90
2023-09-15T21:00:19.640Z,99.90
2023-09-15T21:02:50.487Z,99.90
2023-09-15T21:05:21.628Z,99.90
2023-09-15T21:07:51.883Z,99.90
2023-09-15T21:10:23.132Z,99.90
2023-09-15T21:12:53.987Z,99.90
2023-09-15T21:15:24.543Z,99.90
2023-09-15T21:17:55.103Z,99.90
2023-09-15T21:20:25.558Z,99.90
2023-09-15T21:22:57.126Z,99.90
2023-09-15T21:25:27.840Z,99.90
2023-09-15T21:27:58.203Z,99.90
2023-09-15T21:30:29.348Z,99.90
2023-09-15T21:32:59.764Z,99.90
2023-09-15T21:35:30.164Z,99.90
2023-09-15T21:38:05.325Z,99.90
2023-09-15T21:40:36.167Z,99.90
2023-09-15T21:43:08.429Z,99.90
2023-09-15T21:45:39.114Z,99.90
2023-09-15T21:48:09.782Z,99.90
2023-09-15T21:50:40.560Z,99.90
2023-09-15T21:53:11.192Z,99.90
2023-09-15T21:55:41.630Z,99.90
2023-09-15T21:58:12.257Z,99.90
2023-09-15T22:00:43.297Z,99.90
2023-09-15T22:03:13.985Z,99.90
2023-09-15T22:05:44.456Z,99.90
2023-09-15T22:08:15.014Z,99.90
2023-09-15T22:10:47.068Z,99.90
2023-09-15T22:13:19.638Z,99.90
2023-09-15T22:15:50.021Z,99.90
2023-09-15T22:18:20.501Z,99.90
2023-09-15T22:20:50.788Z,99.90
2023-09-15T22:23:21.771Z,99.90
2023-09-15T22:25:52.691Z,99.90
2023-09-15T22:28:24.976Z,99.90
2023-09-15T22:30:58.236Z,99.90
2023-09-15T22:33:30.733Z,99.90
2023-09-15T22:36:07.495Z,99.90
2023-09-15T22:38:39.415Z,99.90
2023-09-15T22:41:18.039Z,99.90
2023-09-15T22:43:49.471Z,99.90
2023-09-15T22:46:27.298Z,99.90
2023-09-15T22:48:57.923Z,99.90
2023-09-15T22:51:28.343Z,99.90
2023-09-15T22:53:58.966Z,99.90
2023-09-15T22:56:29.265Z,99.90
2023-09-15T22:58:59.740Z,99.90
2023-09-15T23:01:30.232Z,99.90
2023-09-15T23:04:00.736Z,99.90
2023-09-15T23:06:31.136Z,99.90
2023-09-15T23:09:02.699Z,99.90
2023-09-15T23:11:33.090Z,99.90
2023-09-15T23:14:05.104Z,99.90
2023-09-15T23:16:35.515Z,99.90
2023-09-15T23:19:06.093Z,99.90
2023-09-15T23:21:36.469Z,99.90
2023-09-15T23:24:07.077Z,99.90
2023-09-15T23:26:37.491Z,99.90
2023-09-15T23:29:08.073Z,99.90
2023-09-15T23:31:39.691Z,99.90
2023-09-15T23:34:11.320Z,99.90
2023-09-15T23:36:43.745Z,99.90
2023-09-15T23:39:17.430Z,99.90
2023-09-15T23:41:48.318Z,99.90
2023-09-15T23:44:18.820Z,99.90
2023-09-15T23:46:49.448Z,99.90
2023-09-15T23:49:23.005Z,99.90
2023-09-15T23:51:54.177Z,99.90
2023-09-15T23:54:30.266Z,99.90
2023-09-15T23:57:00.757Z,99.90
2023-09-15T23:59:31.271Z,99.90
